Time;durP1;ratioP1;P1;durP2;ratioP2;P2;SDS_P1;SDS_P2;PMS_P1;PMS_P2;Temp;Humidity;BMP_temperature;BMP_pressure;BME280_temperature;BME280_humidity;BME280_pressure;Samples;Min_cycle;Max_cycle;Signal;HPM_P1;HPM_P2
2022/05/26 00:01:04;;;;;;;;;3.33;2.00;;;;;16.70;60.27;101600.50;5022563;28;46632;-62
2022/05/26 00:03:34;;;;;;;;;1.33;1.00;;;;;16.66;60.17;101588.16;5036363;28;45433;-60
2022/05/26 00:06:01;;;;;;;;;3.00;1.00;;;;;16.66;60.48;101593.53;5032334;28;46018;-61
2022/05/26 00:08:27;;;;;;;;;2.00;1.00;;;;;16.62;60.47;101597.41;5022317;28;45560;-62
2022/05/26 00:10:54;;;;;;;;;2.00;1.00;;;;;16.60;60.71;101594.81;5030820;28;45617;-61
2022/05/26 00:13:20;;;;;;;;;1.33;1.00;;;;;16.58;60.31;101595.88;5032551;28;45501;-60
2022/05/26 00:15:46;;;;;;;;;1.00;1.00;;;;;16.51;60.35;101596.28;5035354;28;45441;-63
2022/05/26 00:18:11;;;;;;;;;1.67;0.00;;;;;16.46;60.89;101603.78;5036108;28;45565;-60
2022/05/26 00:20:37;;;;;;;;;3.00;1.00;;;;;16.45;61.18;101603.88;5031692;28;46955;-61
2022/05/26 00:23:02;;;;;;;;;1.00;1.00;;;;;16.37;60.79;101604.34;5018266;28;45405;-62
2022/05/26 00:25:29;;;;;;;;;1.00;1.00;;;;;16.29;61.24;101590.59;5021316;28;45488;-62
2022/05/26 00:27:56;;;;;;;;;0.00;0.00;;;;;16.32;61.60;101602.94;5019670;28;45281;-61
2022/05/26 00:30:21;;;;;;;;;3.00;0.00;;;;;16.31;61.04;101602.09;5024338;28;46131;-61
2022/05/26 00:32:47;;;;;;;;;0.67;0.67;;;;;16.30;61.58;101607.56;5033765;28;45236;-61
2022/05/26 00:35:15;;;;;;;;;2.00;0.00;;;;;16.23;61.62;101605.25;5028261;28;45350;-60
2022/05/26 00:37:43;;;;;;;;;1.00;1.00;;;;;16.25;61.48;101612.34;5035167;28;45772;-61
2022/05/26 00:40:12;;;;;;;;;2.00;0.67;;;;;16.22;61.55;101608.03;5034367;28;45630;-62
2022/05/26 00:42:37;;;;;;;;;0.00;0.00;;;;;16.16;61.21;101611.13;5021392;28;45343;-60
2022/05/26 00:45:05;;;;;;;;;1.00;0.00;;;;;16.16;61.21;101619.16;5023709;28;45337;-61
2022/05/26 00:47:34;;;;;;;;;0.67;0.67;;;;;16.14;61.51;101619.22;5036162;28;45869;-62
2022/05/26 00:50:07;;;;;;;;;0.00;0.00;;;;;16.16;60.93;101611.13;5027855;28;45474;-60
2022/05/26 00:52:42;;;;;;;;;2.00;2.00;;;;;16.12;61.18;101610.41;5033143;28;45355;-61
2022/05/26 00:55:23;;;;;;;;;4.00;1.00;;;;;16.18;60.89;101617.25;5032266;28;45300;-61
2022/05/26 00:58:00;;;;;;;;;1.00;0.00;;;;;16.19;61.00;101613.59;5028169;28;45390;-60
2022/05/26 01:00:29;;;;;;;;;0.33;0.33;;;;;16.19;61.18;101618.97;5016711;28;45486;-61
2022/05/26 01:03:29;;;;;;;;;0.33;0.33;;;;;16.20;61.07;101618.88;5019304;28;45434;-61
2022/05/26 01:06:37;;;;;;;;;0.00;0.00;;;;;16.20;61.15;101634.09;5035250;28;45606;-62
2022/05/26 01:09:05;;;;;;;;;1.67;1.00;;;;;16.20;61.01;101628.75;5025649;28;45725;-61
2022/05/26 01:11:34;;;;;;;;;0.00;0.00;;;;;16.16;61.20;101624.53;5037038;28;46344;-62
2022/05/26 01:14:22;;;;;;;;;0.00;0.00;;;;;16.18;60.98;101627.97;5037133;28;45331;-62
2022/05/26 01:16:48;;;;;;;;;0.00;0.00;;;;;16.17;61.35;101628.94;5038032;28;45412;-62
2022/05/26 01:19:16;;;;;;;;;0.33;0.33;;;;;16.16;61.48;101624.53;5038444;28;45485;-62
2022/05/26 01:21:51;;;;;;;;;4.00;1.00;;;;;16.13;61.75;101622.00;5036822;28;47879;-61
2022/05/26 01:24:42;;;;;;;;;0.00;0.00;;;;;16.18;61.66;101630.66;5035393;28;45542;-61
2022/05/26 01:27:18;;;;;;;;;0.67;0.67;;;;;16.14;61.90;101632.66;5038625;28;45479;-61
2022/05/26 01:30:05;;;;;;;;;1.33;0.00;;;;;16.08;62.90;101633.06;5036876;28;45394;-64
2022/05/26 01:32:58;;;;;;;;;1.67;0.67;;;;;16.07;62.97;101642.06;5034515;28;47116;-61
2022/05/26 01:35:36;;;;;;;;;0.00;0.00;;;;;16.06;63.41;101643.03;5035460;28;45389;-60
2022/05/26 01:38:29;;;;;;;;;0.00;0.00;;;;;16.06;64.75;101642.16;5027655;28;45410;-60
2022/05/26 01:41:13;;;;;;;;;0.00;0.00;;;;;16.00;64.90;101642.53;5018582;28;45342;-61
2022/05/26 01:43:50;;;;;;;;;0.00;0.00;;;;;15.93;65.34;101636.69;5034408;28;47357;-61
2022/05/26 01:46:39;;;;;;;;;0.00;0.00;;;;;15.87;65.45;101640.59;5038581;28;45501;-61
2022/05/26 01:49:29;;;;;;;;;0.00;0.00;;;;;15.88;66.17;101639.63;5035512;28;45297;-61
2022/05/26 01:52:05;;;;;;;;;0.33;0.00;;;;;15.77;67.97;101634.09;5036389;28;45456;-60
2022/05/26 01:54:43;;;;;;;;;0.00;0.00;;;;;15.75;67.90;101638.66;5018445;28;46568;-63
2022/05/26 01:57:28;;;;;;;;;0.00;0.00;;;;;15.76;67.34;101635.06;5024874;28;46129;-61
2022/05/26 02:00:00;;;;;;;;;0.00;0.00;;;;;15.74;67.61;101644.13;5037683;28;45246;-61
2022/05/26 02:02:30;;;;;;;;;0.00;0.00;;;;;15.74;67.20;101647.66;5036550;28;45906;-61
2022/05/26 02:05:12;;;;;;;;;3.00;1.00;;;;;15.78;67.53;101643.00;5038030;28;46270;-61
2022/05/26 02:07:48;;;;;;;;;1.00;1.00;;;;;15.66;68.47;101641.06;5033412;28;45375;-61
2022/05/26 02:10:20;;;;;;;;;0.00;0.00;;;;;15.66;68.40;101643.75;5036866;28;45288;-61
2022/05/26 02:12:54;;;;;;;;;0.00;0.00;;;;;15.71;67.06;101639.81;5035663;28;45485;-61
2022/05/26 02:15:37;;;;;;;;;0.33;0.33;;;;;15.78;66.61;101641.19;5034761;28;45250;-62
2022/05/26 02:18:20;;;;;;;;;4.67;2.00;;;;;15.83;66.56;101635.53;5037091;28;45564;-62
2022/05/26 02:20:50;;;;;;;;;1.33;1.00;;;;;15.79;65.37;101634.88;5038129;28;45406;-62
2022/05/26 02:23:17;;;;;;;;;0.00;0.00;;;;;15.82;65.88;101640.03;5032844;28;45577;-62
2022/05/26 02:25:43;;;;;;;;;2.67;0.00;;;;;15.82;66.04;101639.16;5017826;28;46281;-62
2022/05/26 02:28:10;;;;;;;;;2.00;1.00;;;;;15.83;65.44;101636.38;5030444;28;45390;-62
2022/05/26 02:30:41;;;;;;;;;1.67;0.00;;;;;15.82;65.45;101634.66;5036408;28;45463;-62
2022/05/26 02:33:10;;;;;;;;;4.00;0.33;;;;;15.82;65.07;101639.16;5037669;28;45678;-61
2022/05/26 02:35:42;;;;;;;;;2.67;1.00;;;;;15.73;65.88;101645.94;5019866;28;45540;-61
2022/05/26 02:38:13;;;;;;;;;0.00;0.00;;;;;15.74;67.21;101662.91;5032481;28;45525;-61
2022/05/26 02:40:38;;;;;;;;;1.67;1.67;;;;;15.64;68.66;101657.25;5020591;28;45956;-61
2022/05/26 02:43:23;;;;;;;;;1.00;1.00;;;;;15.56;70.12;101654.13;5031405;28;45654;-62
2022/05/26 02:46:19;;;;;;;;;1.67;1.00;;;;;15.57;69.44;101655.84;5037331;28;45979;-61
2022/05/26 02:49:05;;;;;;;;;0.00;0.00;;;;;15.57;69.19;101655.84;5019987;28;45425;-60
2022/05/26 02:52:02;;;;;;;;;1.00;1.00;;;;;15.51;70.79;101656.22;5024052;28;45391;-60
2022/05/26 02:54:33;;;;;;;;;1.00;1.00;;;;;15.49;70.74;101668.84;5032010;28;45448;-61
2022/05/26 02:57:35;;;;;;;;;1.67;1.67;;;;;15.46;70.81;101667.22;5035732;28;45497;-62
2022/05/26 03:00:06;;;;;;;;;0.67;0.67;;;;;15.48;71.07;101665.28;5035977;28;45346;-60
2022/05/26 03:02:44;;;;;;;;;1.00;1.00;;;;;15.45;71.43;101661.94;5028340;28;45278;-58
2022/05/26 03:05:21;;;;;;;;;0.00;0.00;;;;;15.38;72.60;101658.78;5036517;28;45403;-60
2022/05/26 03:07:50;;;;;;;;;3.33;1.00;;;;;15.29;74.07;101657.50;5033500;28;47716;-59
2022/05/26 03:10:17;;;;;;;;;1.50;1.00;;;;;15.24;74.50;101648.00;5037229;28;45253;-61
2022/05/26 03:12:43;;;;;;;;;2.00;0.67;;;;;15.26;74.23;101651.47;5034256;28;45485;-61
2022/05/26 03:15:10;;;;;;;;;0.00;0.00;;;;;15.26;75.26;101660.34;5019638;28;45524;-61
2022/05/26 03:17:38;;;;;;;;;0.00;0.00;;;;;15.20;74.74;101658.03;5026635;28;45522;-61
2022/05/26 03:20:04;;;;;;;;;1.00;1.00;;;;;15.22;75.51;101658.78;5037011;28;45430;-60
2022/05/26 03:22:29;;;;;;;;;0.00;0.00;;;;;15.26;73.36;101668.41;5035061;28;45353;-59
2022/05/26 03:24:55;;;;;;;;;1.00;1.00;;;;;15.25;73.15;101669.34;5035719;28;45612;-61
2022/05/26 03:27:20;;;;;;;;;0.33;0.33;;;;;15.30;74.50;101669.94;5037047;28;45271;-60
2022/05/26 03:29:45;;;;;;;;;0.33;0.33;;;;;15.29;74.68;101676.25;5036819;28;45320;-60
2022/05/26 03:32:11;;;;;;;;;1.00;1.00;;;;;15.27;74.65;101675.47;5025926;28;45469;-61
2022/05/26 03:42:50;;;;;;;;;0.00;0.00;;;;;15.18;75.56;101681.38;5025676;28;45458;-60
2022/05/26 03:45:20;;;;;;;;;0.00;0.00;;;;;15.15;73.96;101678.88;5017193;28;45319;-60
2022/05/26 03:47:45;;;;;;;;;0.00;0.00;;;;;15.14;72.94;101673.59;5015707;28;46165;-62
2022/05/26 03:50:11;;;;;;;;;0.00;0.00;;;;;15.10;72.41;101672.03;5020494;28;45367;-61
2022/05/26 03:52:37;;;;;;;;;0.67;0.33;;;;;15.11;72.23;101665.75;5026170;28;45386;-62
2022/05/26 03:55:03;;;;;;;;;0.00;0.00;;;;;15.07;72.90;101673.09;5035726;28;45334;-59
2022/05/26 03:57:31;;;;;;;;;0.67;0.00;;;;;15.09;72.90;101673.84;5031857;28;45491;-61
2022/05/26 03:59:57;;;;;;;;;2.67;0.00;;;;;15.10;72.97;101683.63;5036486;28;45433;-60
2022/05/26 04:02:22;;;;;;;;;0.00;0.00;;;;;15.12;71.64;101680.88;5033516;28;45496;-61
2022/05/26 04:04:48;;;;;;;;;1.00;1.00;;;;;15.11;71.75;101685.38;5034022;28;45629;-60
2022/05/26 04:07:14;;;;;;;;;0.00;0.00;;;;;15.13;71.40;101683.47;5017465;28;46201;-60
2022/05/26 04:09:40;;;;;;;;;2.00;0.00;;;;;15.13;71.93;101688.81;5020550;28;45319;-61
2022/05/26 04:12:07;;;;;;;;;0.00;0.00;;;;;15.16;71.60;101693.13;5035540;28;45450;-61
2022/05/26 04:14:33;;;;;;;;;2.67;0.33;;;;;15.17;70.41;101701.09;5035296;28;45460;-59
2022/05/26 04:16:59;;;;;;;;;0.00;0.00;;;;;15.19;70.83;101704.53;5024395;28;45734;-63
2022/05/26 04:19:25;;;;;;;;;2.00;0.00;;;;;15.16;70.79;101699.34;5036109;28;45343;-62
2022/05/26 04:24:36;;;;;;;;;1.67;1.00;;;;;15.16;70.56;101691.31;5016478;28;45484;-61
2022/05/26 04:27:01;;;;;;;;;0.00;0.00;;;;;15.10;70.74;101683.63;5022077;28;45402;-61
2022/05/26 04:29:27;;;;;;;;;2.00;1.00;;;;;15.15;70.59;101697.63;5034480;28;45231;-60
2022/05/26 04:31:56;;;;;;;;;1.00;0.00;;;;;15.16;70.87;101694.00;5020737;28;45248;-62
2022/05/26 04:34:22;;;;;;;;;0.67;0.67;;;;;15.20;71.05;101702.72;5016202;28;45462;-60
2022/05/26 04:36:47;;;;;;;;;4.00;2.00;;;;;15.24;70.72;101702.47;5025950;28;45922;-59
2022/05/26 04:39:14;;;;;;;;;1.00;1.00;;;;;15.27;69.95;101713.00;5015685;28;45430;-60
2022/05/26 04:41:41;;;;;;;;;2.00;1.00;;;;;15.26;70.07;101715.78;5025506;28;45910;-60
2022/05/26 04:44:07;;;;;;;;;1.00;1.00;;;;;15.27;70.27;101721.03;5023242;28;45482;-60
2022/05/26 04:46:32;;;;;;;;;1.00;1.00;;;;;15.29;69.97;101724.50;5033460;28;46340;-61
2022/05/26 04:48:58;;;;;;;;;1.00;1.00;;;;;15.30;69.21;101717.31;5018492;28;45205;-60
2022/05/26 04:51:23;;;;;;;;;1.00;0.00;;;;;15.28;69.53;101721.91;5015891;28;45268;-61
2022/05/26 04:53:49;;;;;;;;;1.67;1.00;;;;;15.30;69.37;101723.53;5014973;28;45707;-62
2022/05/26 04:56:15;;;;;;;;;1.00;1.00;;;;;15.32;69.96;101726.13;5014606;28;45415;-59
2022/05/26 04:58:41;;;;;;;;;1.00;1.00;;;;;15.39;68.73;101721.28;5033637;28;45430;-60
2022/05/26 05:01:13;;;;;;;;;1.00;1.00;;;;;15.43;68.72;101738.91;5025429;28;45427;-60
2022/05/26 05:03:39;;;;;;;;;0.00;0.00;;;;;15.46;69.43;101738.72;5029719;28;45635;-62
2022/05/26 05:06:05;;;;;;;;;1.00;1.00;;;;;15.45;68.84;101737.88;5029957;28;46178;-61
2022/05/26 05:08:30;;;;;;;;;1.67;1.67;;;;;15.45;68.45;101742.38;5019766;28;46823;-59
2022/05/26 05:10:56;;;;;;;;;2.67;0.33;;;;;15.41;68.39;101732.78;5015900;28;45455;-61
2022/05/26 05:13:21;;;;;;;;;2.00;0.00;;;;;15.47;68.77;101740.44;5015656;28;45458;-61
2022/05/26 05:16:02;;;;;;;;;3.33;1.33;;;;;15.52;68.49;101741.94;5014859;28;45540;-60
2022/05/26 05:18:28;;;;;;;;;1.00;1.00;;;;;15.57;68.76;101745.19;5032024;28;45227;-63
2022/05/26 05:20:57;;;;;;;;;2.00;1.00;;;;;15.53;68.72;101740.97;5033188;28;45253;-61
2022/05/26 05:23:24;;;;;;;;;1.00;1.00;;;;;15.54;67.95;101741.84;5027207;28;45657;-61
2022/05/26 05:25:54;;;;;;;;;3.67;0.00;;;;;15.56;67.68;101731.88;5034600;28;45331;-61
2022/05/26 05:28:25;;;;;;;;;2.00;0.00;;;;;15.53;67.40;101732.06;5034194;28;45500;-61
2022/05/26 05:31:04;;;;;;;;;0.67;0.67;;;;;15.57;67.28;101753.25;5033919;28;45598;-62
2022/05/26 05:33:46;;;;;;;;;0.67;0.00;;;;;15.62;68.32;101753.00;5016537;28;45336;-61
2022/05/26 05:36:20;;;;;;;;;0.33;0.00;;;;;15.64;67.11;101753.78;5018559;28;45248;-62
2022/05/26 05:38:47;;;;;;;;;1.00;1.00;;;;;15.68;67.30;101755.31;5034755;28;45794;-61
2022/05/26 05:41:12;;;;;;;;;1.00;1.00;;;;;15.71;66.76;101752.47;5030888;28;45548;-63
2022/05/26 05:43:39;;;;;;;;;3.00;0.33;;;;;15.73;66.86;101753.22;5015702;28;45576;-62
2022/05/26 05:46:08;;;;;;;;;1.00;1.00;;;;;15.78;66.66;101751.16;5032615;28;45451;-65
2022/05/26 05:48:38;;;;;;;;;0.33;0.33;;;;;15.83;66.91;101756.25;5036305;28;45425;-61
2022/05/26 05:51:04;;;;;;;;;2.00;2.00;;;;;15.88;66.49;101757.69;5026241;28;45732;-61
2022/05/26 05:53:30;;;;;;;;;2.00;1.00;;;;;15.91;66.00;101768.25;5035664;28;45537;-60
2022/05/26 05:55:55;;;;;;;;;1.00;1.00;;;;;15.95;65.96;101773.41;5032907;28;45635;-62
2022/05/26 05:58:21;;;;;;;;;0.67;0.67;;;;;15.91;65.69;101770.94;5038307;28;45559;-60
2022/05/26 06:00:46;;;;;;;;;0.00;0.00;;;;;15.91;65.49;101770.94;5035346;28;45332;-61
2022/05/26 06:03:12;;;;;;;;;1.00;1.00;;;;;15.96;65.80;101772.47;5038440;28;45635;-61
2022/05/26 06:05:38;;;;;;;;;1.00;1.00;;;;;15.93;65.43;101766.34;5030367;28;45760;-61
2022/05/26 06:08:04;;;;;;;;;0.00;0.00;;;;;16.03;65.50;101772.03;5018236;28;45315;-61
2022/05/26 06:10:31;;;;;;;;;0.00;0.00;;;;;15.93;65.52;101766.34;5031141;28;45350;-63
2022/05/26 06:12:57;;;;;;;;;0.00;0.00;;;;;16.03;65.10;101765.78;5032987;28;45453;-60
2022/05/26 06:15:23;;;;;;;;;0.00;0.00;;;;;16.09;65.17;101777.00;5021405;28;45249;-60
2022/05/26 06:17:48;;;;;;;;;0.33;0.33;;;;;16.17;64.85;101790.84;5038845;28;45338;-61
2022/05/26 06:20:14;;;;;;;;;1.00;1.00;;;;;16.25;64.69;101792.16;5036880;28;45438;-60
2022/05/26 06:22:42;;;;;;;;;0.00;0.00;;;;;16.30;64.74;101798.16;5025672;28;45516;-61
2022/05/26 06:25:09;;;;;;;;;1.00;1.00;;;;;16.37;64.40;101797.66;5019716;28;47839;-61
2022/05/26 06:30:20;;;;;;;;;0.00;0.00;;;;;16.42;63.96;101800.94;5045468;28;45504;-60
2022/05/26 06:38:20;;;;;;;;;0.00;0.00;;;;;16.38;66.73;101820.00;5029535;28;45519;-61
2022/05/26 06:40:46;;;;;;;;;2.00;0.00;;;;;16.34;67.16;101824.69;5045225;28;45395;-61
2022/05/26 06:43:14;;;;;;;;;0.33;0.33;;;;;16.41;67.50;101825.22;5037166;28;45663;-61
2022/05/26 06:45:41;;;;;;;;;0.00;0.00;;;;;16.47;65.89;101833.75;5039816;28;45370;-67
2022/05/26 06:48:07;;;;;;;;;0.00;0.00;;;;;16.45;66.33;101830.28;5037592;28;45354;-63
2022/05/26 06:50:33;;;;;;;;;0.00;0.00;;;;;16.50;66.37;101835.38;5032565;28;45418;-63
2022/05/26 06:52:58;;;;;;;;;1.00;1.00;;;;;16.52;66.22;101831.63;5036385;28;45681;-62
2022/05/26 06:55:23;;;;;;;;;0.00;0.00;;;;;16.64;64.91;101831.81;5034597;28;46185;-61
2022/05/26 06:57:49;;;;;;;;;0.00;0.00;;;;;16.70;64.34;101834.19;5032007;28;45295;-62
2022/05/26 07:00:15;;;;;;;;;2.67;1.00;;;;;16.85;64.07;101829.69;5036149;28;45479;-63
2022/05/26 07:02:41;;;;;;;;;3.00;0.33;;;;;17.00;63.60;101834.09;5036601;28;45401;-64
2022/05/26 07:05:08;;;;;;;;;3.00;2.00;;;;;17.10;63.20;101836.09;5038442;28;45459;-62
2022/05/26 07:07:35;;;;;;;;;0.00;0.00;;;;;17.02;62.98;101830.31;5041553;28;45430;-62
2022/05/26 07:10:02;;;;;;;;;0.00;0.00;;;;;16.93;63.81;101841.69;5031532;28;45616;-63
2022/05/26 07:12:28;;;;;;;;;0.00;0.00;;;;;16.89;63.89;101840.13;5033558;28;45469;-62
2022/05/26 07:14:54;;;;;;;;;0.00;0.00;;;;;16.71;64.46;101838.59;5022163;28;45705;-62
2022/05/26 07:17:20;;;;;;;;;0.00;0.00;;;;;16.65;66.17;101852.34;5036429;28;45210;-60
2022/05/26 07:19:46;;;;;;;;;0.00;0.00;;;;;16.71;65.50;101860.09;5024179;28;45461;-62
2022/05/26 07:22:13;;;;;;;;;2.67;0.00;;;;;16.72;65.69;101853.75;5049171;28;45454;-63
2022/05/26 07:24:40;;;;;;;;;0.00;0.00;;;;;16.73;65.82;101859.03;5032060;28;46343;-61
2022/05/26 07:27:05;;;;;;;;;0.00;0.00;;;;;16.76;65.99;101856.16;5027780;28;45556;-62
2022/05/26 07:29:31;;;;;;;;;2.33;0.00;;;;;16.79;65.59;101860.47;5037116;28;45518;-61
2022/05/26 07:31:57;;;;;;;;;0.00;0.00;;;;;16.86;65.52;101864.50;5036595;28;45608;-61
2022/05/26 07:34:23;;;;;;;;;1.00;0.00;;;;;16.82;64.96;101862.97;5034582;28;45787;-62
2022/05/26 07:42:19;;;;;;;;;3.00;3.00;;;;;17.24;63.93;101874.69;5030848;28;45405;-66
2022/05/26 07:44:48;;;;;;;;;0.00;0.00;;;;;17.30;63.39;101863.50;5016064;28;46450;-62
2022/05/26 07:47:14;;;;;;;;;0.33;0.00;;;;;17.36;63.10;101869.38;5032202;28;45610;-63
2022/05/26 07:49:45;;;;;;;;;0.00;0.00;;;;;17.31;62.66;101873.31;5016359;28;45453;-64
2022/05/26 07:52:11;;;;;;;;;3.33;2.00;;;;;17.21;63.45;101875.75;5038117;28;45617;-64
2022/05/26 07:54:38;;;;;;;;;2.00;1.67;;;;;17.06;65.86;101877.56;5033000;28;45413;-62
2022/05/26 07:57:06;;;;;;;;;0.00;0.00;;;;;16.99;67.84;101907.59;5035864;28;45357;-63
2022/05/26 07:59:32;;;;;;;;;2.00;2.00;;;;;16.57;68.76;101906.56;5036143;28;45344;-62
2022/05/26 08:01:58;;;;;;;;;2.00;2.00;;;;;16.51;68.32;101902.41;5034960;28;45452;-61
2022/05/26 08:04:23;;;;;;;;;2.00;2.00;;;;;16.36;68.54;101914.06;5034373;28;45290;-60
2022/05/26 08:06:49;;;;;;;;;4.00;4.00;;;;;16.31;67.84;101905.44;5027981;28;45440;-61
2022/05/26 08:09:19;;;;;;;;;3.00;3.00;;;;;16.27;68.15;101909.22;5028918;28;45569;-61
2022/05/26 08:11:46;;;;;;;;;2.00;2.00;;;;;16.35;67.36;101917.72;5031813;28;45418;-61
2022/05/26 08:14:11;;;;;;;;;4.00;4.00;;;;;16.39;67.54;101919.25;5024474;28;45982;-61
2022/05/26 08:16:38;;;;;;;;;3.00;3.00;;;;;16.40;68.39;101929.03;5033891;28;45577;-65
2022/05/26 08:19:04;;;;;;;;;7.00;5.00;;;;;16.60;68.42;101927.00;5036093;28;45268;-66
2022/05/26 08:21:31;;;;;;;;;3.67;2.33;;;;;16.79;65.21;101930.31;5027003;28;45394;-65
2022/05/26 08:23:57;;;;;;;;;2.00;2.00;;;;;17.17;65.90;101916.34;5016147;28;46116;-65
2022/05/26 08:26:23;;;;;;;;;4.67;3.00;;;;;17.56;63.91;101924.56;5026598;28;45509;-66
2022/05/26 08:28:49;;;;;;;;;5.67;3.00;;;;;17.86;62.72;101921.75;5034375;28;45543;-62
2022/05/26 08:31:15;;;;;;;;;3.00;3.00;;;;;17.98;62.33;101915.56;5031208;28;45465;-64
2022/05/26 08:33:41;;;;;;;;;3.00;3.00;;;;;18.14;61.57;101920.78;5035721;28;46665;-64
2022/05/26 08:36:10;;;;;;;;;3.67;3.67;;;;;18.15;61.71;101910.88;5031355;28;45591;-65
2022/05/26 08:38:37;;;;;;;;;3.33;2.00;;;;;18.16;61.16;101923.38;5041802;28;45358;-65
2022/05/26 08:41:04;;;;;;;;;4.00;4.00;;;;;18.10;62.13;101924.66;5029095;28;45445;-66
2022/05/26 08:43:34;;;;;;;;;6.33;3.67;;;;;18.09;60.91;101916.66;5029339;28;45375;-64
2022/05/26 08:46:03;;;;;;;;;2.33;2.33;;;;;18.15;60.08;101921.66;5017347;28;45564;-65
2022/05/26 08:48:48;;;;;;;;;2.33;1.00;;;;;18.02;60.33;101924.31;5013800;28;45476;-65
2022/05/26 08:51:22;;;;;;;;;4.00;2.33;;;;;18.10;59.69;101931.84;5023502;28;45528;-65
2022/05/26 08:53:50;;;;;;;;;4.00;3.00;;;;;18.30;59.86;101931.41;5033189;28;46252;-66
2022/05/26 08:56:24;;;;;;;;;4.00;4.00;;;;;18.41;58.43;101934.22;5024754;28;45473;-67
2022/05/26 08:59:00;;;;;;;;;3.33;2.00;;;;;18.68;57.82;101938.75;5050427;28;45461;-65
2022/05/26 09:01:31;;;;;;;;;4.67;4.33;;;;;18.81;57.39;101936.94;5016072;28;45426;-64
2022/05/26 09:03:57;;;;;;;;;4.00;4.00;;;;;18.89;56.76;101941.78;5015283;28;46154;-65
2022/05/26 09:06:23;;;;;;;;;13.33;11.67;;;;;18.99;56.95;101937.47;5027081;28;45441;-64
2022/05/26 09:14:32;;;;;;;;;3.00;3.00;;;;;19.77;54.67;101940.84;5015092;28;46073;-64
2022/05/26 09:16:58;;;;;;;;;2.00;2.00;;;;;19.92;54.43;101934.34;5028665;28;45552;-62
2022/05/26 09:19:23;;;;;;;;;4.00;4.00;;;;;19.81;53.63;101939.66;5036329;28;45222;-63
2022/05/26 09:21:51;;;;;;;;;3.00;3.00;;;;;19.74;53.53;101949.16;5022749;28;45305;-66
2022/05/26 09:24:29;;;;;;;;;4.00;4.00;;;;;19.82;52.91;101937.81;5012139;28;47180;-64
2022/05/26 09:27:04;;;;;;;;;3.67;2.67;;;;;19.55;53.45;101940.72;5027729;28;45441;-68
2022/05/26 09:29:33;;;;;;;;;4.67;3.00;;;;;19.52;54.00;101932.78;5027364;28;45382;-64
2022/05/26 09:32:01;;;;;;;;;2.00;2.00;;;;;19.77;53.65;101942.69;5020577;28;45221;-63
2022/05/26 09:34:32;;;;;;;;;4.00;2.00;;;;;19.97;53.13;101950.19;5032913;28;45600;-63
2022/05/26 09:37:04;;;;;;;;;2.00;2.00;;;;;20.09;52.96;101948.41;5021160;28;45340;-64
2022/05/26 09:39:39;;;;;;;;;5.25;3.50;;;;;20.07;51.66;101944.97;5037733;28;45592;-63
2022/05/26 09:42:06;;;;;;;;;5.00;3.67;;;;;20.11;51.93;101951.84;5037771;28;45376;-65
2022/05/26 09:44:49;;;;;;;;;4.67;4.00;;;;;20.00;52.19;101963.44;5027148;28;45442;-65
2022/05/26 09:47:39;;;;;;;;;2.00;2.00;;;;;19.81;51.59;101963.97;5020751;28;45463;-64
2022/05/26 09:50:14;;;;;;;;;5.00;3.00;;;;;19.86;52.88;101966.31;5028822;28;45268;-65
2022/05/26 09:52:49;;;;;;;;;4.33;3.33;;;;;20.02;52.47;101965.06;5038110;28;45294;-66
2022/05/26 09:55:24;;;;;;;;;5.67;5.67;;;;;20.05;52.06;101966.66;5035233;28;47679;-64
2022/05/26 09:58:02;;;;;;;;;6.00;4.00;;;;;20.02;50.99;101970.47;5037954;28;45426;-65
2022/05/26 10:00:37;;;;;;;;;5.67;3.33;;;;;20.14;51.58;101971.38;5036993;28;45445;-64
2022/05/26 10:03:12;;;;;;;;;5.00;2.33;;;;;20.47;49.88;101970.75;5027543;28;46030;-65
2022/05/26 10:06:11;;;;;;;;;3.00;3.00;;;;;20.60;50.31;101955.31;5029155;28;45469;-65
2022/05/26 10:08:49;;;;;;;;;2.67;2.33;;;;;20.67;48.29;101968.34;5018036;28;45221;-65
2022/05/26 10:11:26;;;;;;;;;3.00;2.00;;;;;20.73;48.45;101965.19;5021981;28;45456;-62
2022/05/26 10:14:12;;;;;;;;;2.25;2.25;;;;;20.79;48.23;101965.56;5027557;28;45500;-63
2022/05/26 10:16:51;;;;;;;;;4.00;2.00;;;;;20.89;49.27;101965.72;5018284;28;46108;-64
2022/05/26 10:19:52;;;;;;;;;3.00;2.00;;;;;20.85;48.82;101969.66;5037405;28;45411;-66
2022/05/26 10:22:33;;;;;;;;;2.00;2.00;;;;;20.86;49.29;101966.81;5018160;28;45581;-67
2022/05/26 10:25:02;;;;;;;;;1.00;1.00;;;;;21.04;48.73;101975.31;5048283;27;45529;-64
2022/05/26 10:27:41;;;;;;;;;2.00;2.00;;;;;21.35;48.40;101973.78;5034083;28;45512;-65
2022/05/26 10:30:28;;;;;;;;;2.75;2.75;;;;;21.54;47.35;101966.91;5041936;28;45371;-63
2022/05/26 10:33:08;;;;;;;;;2.50;1.00;;;;;21.41;47.61;101967.03;5030411;28;45430;-62
2022/05/26 10:36:11;;;;;;;;;2.00;2.00;;;;;21.32;47.09;101960.50;5034289;28;45505;-66
2022/05/26 10:38:48;;;;;;;;;2.00;2.00;;;;;21.31;47.23;101972.31;5054523;28;45514;-67
2022/05/26 10:41:24;;;;;;;;;2.00;2.00;;;;;21.32;47.40;101963.22;5038621;28;46099;-64
2022/05/26 10:44:13;;;;;;;;;1.75;1.75;;;;;21.36;46.73;101958.44;5034627;28;45525;-64
2022/05/26 10:46:44;;;;;;;;;1.75;1.75;;;;;21.30;47.54;101969.75;5025874;28;45566;-69
2022/05/26 10:49:22;;;;;;;;;2.75;2.75;;;;;21.32;47.27;101967.75;5023107;28;46384;-68
2022/05/26 10:52:10;;;;;;;;;2.00;2.00;;;;;21.28;47.61;101972.56;5019226;28;45227;-62
2022/05/26 10:55:02;;;;;;;;;1.75;1.75;;;;;21.23;47.93;101968.50;5032741;28;45299;-64
2022/05/26 10:57:27;;;;;;;;;1.00;1.00;;;;;21.14;47.30;101981.75;5034734;28;45428;-61
2022/05/26 11:00:09;;;;;;;;;2.00;2.00;;;;;21.14;47.53;101970.94;5038937;28;46071;-57
2022/05/26 11:02:40;;;;;;;;;2.75;2.00;;;;;21.16;47.78;101971.66;5028947;28;45657;-59
2022/05/26 11:05:12;;;;;;;;;2.75;1.00;;;;;21.21;47.15;101964.03;5015993;28;45479;-63
2022/05/26 11:07:52;;;;;;;;;2.50;1.75;;;;;21.34;47.60;101965.78;5032219;28;45422;-64
2022/05/26 11:10:31;;;;;;;;;2.00;2.00;;;;;21.44;47.20;101954.13;5020128;28;45490;-63
2022/05/26 11:13:00;;;;;;;;;1.00;1.00;;;;;21.58;46.35;101963.84;5029426;28;45394;-69
2022/05/26 11:18:43;;;;;;;;;0.25;0.25;;;;;21.71;45.30;101959.13;5024637;28;45463;-66
2022/05/26 11:21:16;;;;;;;;;0.00;0.00;;;;;21.63;44.96;101945.38;5034176;28;46912;-66
2022/05/26 11:23:41;;;;;;;;;0.75;0.75;;;;;21.61;45.51;101952.75;5033979;28;45508;-66
2022/05/26 11:26:53;;;;;;;;;2.25;1.00;;;;;21.53;46.23;101948.97;5036896;28;45888;-64
2022/05/26 11:29:39;;;;;;;;;1.50;0.50;;;;;21.63;47.06;101952.66;5023892;28;45534;-63
2022/05/26 11:38:08;;;;;;;;;0.00;0.00;;;;;22.04;46.58;101949.25;5034945;28;45331;-64
2022/05/26 11:41:05;;;;;;;;;3.25;2.25;;;;;21.90;46.60;101941.41;5019826;28;45319;-66
2022/05/26 11:43:56;;;;;;;;;1.00;1.00;;;;;21.66;47.04;101945.13;5034144;28;46406;-64
2022/05/26 11:46:47;;;;;;;;;7.00;1.00;;;;;21.38;47.26;101946.50;5030616;28;45512;-64
2022/05/26 11:49:43;;;;;;;;;3.25;1.25;;;;;21.35;47.39;101935.03;5035895;28;45334;-64
2022/05/26 11:52:27;;;;;;;;;1.00;1.00;;;;;21.35;48.23;101948.56;5031121;28;45460;-64
2022/05/26 11:54:52;;;;;;;;;1.50;1.50;;;;;21.46;48.12;101949.44;5024521;28;45429;-64
2022/05/26 11:57:34;;;;;;;;;1.75;0.50;;;;;21.65;47.60;101954.25;5027032;28;45830;-67
2022/05/26 12:00:18;;;;;;;;;0.00;0.00;;;;;21.65;46.83;101959.66;5020411;28;45483;-65
2022/05/26 12:02:45;;;;;;;;;0.00;0.00;;;;;21.50;46.93;101944.66;5016752;28;45529;-65
2022/05/26 12:05:43;;;;;;;;;0.00;0.00;;;;;21.68;46.45;101945.00;5014948;28;45429;-65
2022/05/26 12:08:28;;;;;;;;;0.00;0.00;;;;;21.90;46.11;101952.25;5014891;28;45399;-63
2022/05/26 12:10:57;;;;;;;;;1.00;1.00;;;;;22.02;45.37;101935.84;5016212;28;46024;-66
2022/05/26 12:13:28;;;;;;;;;0.25;0.00;;;;;22.15;45.13;101933.00;5016588;28;45516;-65
2022/05/26 12:16:17;;;;;;;;;0.00;0.00;;;;;22.32;45.08;101934.28;5016015;28;45577;-66
2022/05/26 12:18:56;;;;;;;;;2.75;0.00;;;;;22.33;43.98;101936.84;5016337;28;45474;-65
2022/05/26 12:21:42;;;;;;;;;0.25;0.25;;;;;22.15;44.22;101929.44;5016145;28;45413;-66
2022/05/26 12:24:32;;;;;;;;;0.25;0.25;;;;;22.21;44.76;101934.31;5016632;28;45437;-65
2022/05/26 12:26:59;;;;;;;;;1.00;1.00;;;;;22.36;44.40;101928.44;5016058;28;45557;-68